Uruguaiana, Brazil
Current Conditions -  °F | °C
As of 4:00 PM on Thursday 23 Oct 2014 (Local Time) from SBUG Reporting Station
Clear Clear  
Wind Chill: 88°   Ceiling: Unl
Heat Index: 88°   Visibility: 6mi
Dew Point: 55°   Wind: 6mph
Humidity: 33%   Direction: 40°NE
Pressure: 29.91"   Gusts: NA
Location:  29.77°S, 57.09°W
Report Text: SBUG 231800Z 04005KT CAVOK 31/13 Q1013
Loading
Personal Weather Stations






























Interactive Weather Map
Tropical Storm Tracking
New forecast layout! Learn more

10-Day Weather Forecast

Advertisements
Track Severe Weather on mobile